Terminal Aerodrome Forecast
Issued by NWS

Home | Current Version | Previous Version | Graphics & Text | Print | Product List | Glossary On
Versions: 1 2 3 4 5 6 7 8 9 10 11 12 13 14
000
FTUS43 KIWX 300400 AAA
TAFSBN
TAF AMD
KSBN 300448Z 3005/3024 29011G18KT P6SM SCT025 BKN050
     FM301200 26010KT P6SM SKC
     FM301600 28012G18KT P6SM SCT060=

USA.gov is the U.S. government's official web portal to all federal, state and local government web resources and services.